Latest Weather Observations for kunanyi / Mount Wellington

IDT60901

Issued at 8:11 pm EDT Tuesday 26 January 2021 (issued every 10 minutes, with the page automatically refreshed every 10 minutes)

About weather observations | Map of Hobart area stations | Latest observations for Hobart area | Other Formats
Station Details ID: 094087 Name: KUNANYI (MOUNT WELLINGTON PINNACLE) Lat: -42.90 Lon: 147.24 Height: 1260.47 m
Data from the previous 72 hours. | See also: Recent months at kunanyi / Mount Wellington
Date/Time
EDT
Temp
°C
App
Temp
°C
Dew
Point
°C
Rel
Hum
%
Delta-T
°C
Wind Press
QNH
hPa
Press
MSL
hPa
Rain since
9am
mm
Dir  Spd
km/h
Gust
km/h
Spd
kts
Gust
kts
26/08:00pm 3.1 -5.1 0.2 81 1.2 W 33 50 18 27 - - 0.0
26/07:30pm 3.8 -5.3 -0.8 72 1.8 WSW 37 52 20 28 - - 0.0
26/07:06pm 4.5 -5.8 -1.1 67 2.2 W 43 61 23 33 - - 0.0
26/07:00pm 5.0 -6.2 -0.8 66 2.4 WSW 48 61 26 33 - - 0.0
26/06:30pm 4.1 -6.3 -1.9 65 2.3 WSW 43 54 23 29 - - 0.0
26/06:00pm 5.9 -2.6 -1.5 59 3.0 W 33 50 18 27 - - 0.0
26/05:58pm 6.0 -2.2 -0.9 61 2.8 W 32 50 17 27 - - 0.0
26/05:30pm 6.5 -2.5 0.0 63 2.7 W 37 52 20 28 - - 0.0
26/05:00pm 6.7 -3.4 0.6 65 2.6 WSW 43 57 23 31 - - 0.0
26/04:30pm 6.9 -4.0 1.4 68 2.4 WSW 48 61 26 33 - - 0.0
26/04:13pm 7.0 -2.1 1.7 69 2.3 W 39 61 21 33 - - 0.0
26/04:00pm 7.6 -2.2 2.3 69 2.4 W 43 57 23 31 - - 0.0
26/03:51pm 6.9 -1.7 2.8 75 1.9 W 37 57 20 31 - - 0.0
26/03:30pm 7.2 -0.6 5.0 86 1.0 W 35 54 19 29 - - 0.0
26/03:27pm 7.0 -0.4 5.2 88 0.9 W 33 54 18 29 - - 0.0
26/03:00pm 8.2 1.1 5.3 82 1.4 W 32 44 17 24 - - 0.0
26/02:30pm 8.2 1.9 5.5 83 1.3 WSW 28 39 15 21 - - 0.0
26/02:18pm 8.9 2.2 3.9 71 2.4 W 28 46 15 25 - - 0.0
26/02:00pm 8.2 1.7 6.5 89 0.8 WSW 30 48 16 26 - - 0.0
26/01:30pm 9.2 3.4 4.4 72 2.3 WNW 24 39 13 21 - - 0.0
26/01:04pm 8.4 0.8 5.7 83 1.3 W 35 56 19 30 - - 0.0
26/01:00pm 8.5 1.5 6.0 84 1.2 W 32 43 17 23 - - 0.0
26/12:30pm 9.1 3.3 6.4 83 1.3 W 26 37 14 20 - - 0.0
26/12:00pm 9.3 1.7 5.7 78 1.8 W 35 46 19 25 - - 0.0
26/11:42am 9.6 1.9 5.2 74 2.1 WNW 35 57 19 31 - - 0.0
26/11:30am 9.8 1.6 5.0 72 2.3 WNW 37 54 20 29 - - 0.0
26/11:04am 9.3 0.7 4.5 72 2.3 W 39 61 21 33 - - 0.0
26/11:00am 9.5 1.9 6.0 79 1.7 W 35 50 19 27 - - 0.0
26/10:54am 8.9 0.2 5.8 81 1.5 W 41 59 22 32 - - 0.0
26/10:30am 7.5 -0.6 5.3 86 1.1 WSW 37 54 20 29 - - 0.0
26/10:00am 8.6 1.6 6.7 88 0.9 W 33 43 18 23 - - 0.0
26/09:30am 7.5 0.6 6.4 93 0.5 WSW 32 41 17 22 - - 0.0
26/09:00am 7.3 1.6 6.9 97 0.2 WSW 26 37 14 20 - - 6.0
26/08:30am 7.4 1.1 7.4 100 0.0 W 30 39 16 21 - - 6.0
26/08:00am 6.9 0.9 6.9 100 0.0 WSW 28 39 15 21 - - 6.0
26/07:30am 6.7 1.0 6.7 100 0.0 WSW 26 33 14 18 - - 6.0
26/07:00am 6.5 -0.6 6.5 100 0.0 WSW 33 46 18 25 - - 6.0
26/06:30am 6.8 -0.2 6.8 100 0.0 W 33 43 18 23 - - 6.0
26/06:00am 7.2 -0.1 7.2 100 0.0 W 35 46 19 25 - - 6.0
26/05:30am 8.3 1.6 8.3 100 0.0 W 33 43 18 23 - - 5.8
26/05:00am 9.2 3.3 9.2 100 0.0 WSW 30 44 16 24 - - 5.6
26/04:30am 9.4 4.7 9.4 100 0.0 W 24 32 13 17 - - 5.4
26/04:00am 9.5 5.2 9.5 100 0.0 W 22 30 12 16 - - 5.2
26/03:30am 9.6 5.7 9.6 100 0.0 WNW 20 26 11 14 - - 4.6
26/03:00am 9.7 6.8 9.7 100 0.0 NW 15 28 8 15 - - 4.6
26/02:33am 9.9 4.1 9.4 97 0.3 W 30 48 16 26 - - 4.6
26/02:30am 9.9 3.5 9.4 97 0.3 W 33 48 18 26 - - 4.6
26/02:00am 9.8 1.1 9.8 100 0.0 W 46 57 25 31 - - 4.6
26/01:30am 9.6 -0.3 9.6 100 0.0 W 52 61 28 33 - - 4.6
26/01:00am 10.8 4.0 10.8 100 0.0 W 37 44 20 24 - - 4.4
26/12:30am 10.7 3.9 10.7 100 0.0 WSW 37 44 20 24 - - 4.4
26/12:19am 10.8 4.8 10.8 100 0.0 WSW 33 43 18 23 - - 4.0
26/12:00am 12.6 7.1 12.6 100 0.0 WNW 33 46 18 25 - - 3.8
 
Date/Time
EDT
Temp
°C
App
Temp
°C
Dew
Point
°C
Rel
Hum
%
Delta-T
°C
Wind Press
QNH
hPa
Press
MSL
hPa
Rain since
9am
mm
Dir  Spd
km/h
Gust
km/h
Spd
kts
Gust
kts
25/11:54pm 12.8 7.0 12.8 100 0.0 WNW 35 52 19 28 - - 3.8
25/11:34pm 12.9 6.4 12.9 100 0.0 NNW 39 59 21 32 - - 3.4
25/11:30pm 12.9 5.5 12.9 100 0.0 NNW 44 59 24 32 - - 3.4
25/11:00pm 12.8 4.2 12.8 100 0.0 NNW 50 61 27 33 - - 2.8
25/10:30pm 12.8 3.8 12.8 100 0.0 NNW 52 69 28 37 - - 2.6
25/10:11pm 12.8 2.5 12.8 100 0.0 NNW 59 80 32 43 - - 2.6
25/10:00pm 12.7 2.3 12.7 100 0.0 NNW 59 70 32 38 - - 2.6
25/09:30pm 12.6 2.6 12.6 100 0.0 NNW 57 72 31 39 - - 2.4
25/09:10pm 12.5 2.5 12.5 100 0.0 NNW 57 76 31 41 - - 2.2
25/09:00pm 12.5 2.5 12.5 100 0.0 NNW 57 70 31 38 - - 2.2
25/08:39pm 12.5 2.6 12.5 100 0.0 NNW 56 76 30 41 - - 2.0
25/08:30pm 12.6 3.2 12.6 100 0.0 NW 54 65 29 35 - - 2.0
25/08:00pm 12.5 3.4 12.5 100 0.0 NW 52 65 28 35 - - 1.8
25/07:30pm 13.3 4.8 13.3 100 0.0 NW 50 63 27 34 - - 1.6
25/07:11pm 12.7 3.6 12.4 98 0.2 NW 52 70 28 38 - - 1.4
25/07:04pm 13.9 4.6 11.9 88 1.1 NNW 52 72 28 39 - - 0.6
25/07:00pm 14.2 4.2 12.2 88 1.2 N 56 72 30 39 - - 0.6
25/06:50pm 12.8 4.9 12.8 100 0.0 NNW 46 57 25 31 - - 0.6
25/06:30pm 12.7 4.4 12.7 100 0.0 NW 48 56 26 30 - - 0.4
25/06:00pm 13.1 4.7 12.2 94 0.5 WNW 48 61 26 33 - - 0.2
25/05:30pm 13.7 5.1 11.6 87 1.2 WNW 48 69 26 37 - - 0.0
25/05:29pm 13.7 5.1 11.8 88 1.1 WNW 48 69 26 37 - - 0.0
25/05:00pm 15.1 7.1 10.5 74 2.6 WNW 43 54 23 29 - - 0.0
25/04:41pm 15.3 7.2 10.7 74 2.6 WNW 44 63 24 34 - - 0.0
25/04:30pm 14.9 6.0 10.5 75 2.5 W 48 65 26 35 - - 0.0
25/04:04pm 14.7 5.9 10.9 78 2.1 W 48 67 26 36 - - 0.0
25/04:00pm 14.7 5.5 10.9 78 2.1 W 50 67 27 36 - - 0.0
25/03:46pm 15.0 5.3 10.4 74 2.6 W 52 70 28 38 - - 0.0
25/03:30pm 15.9 7.3 10.4 70 3.1 W 46 63 25 34 - - 0.0
25/03:00pm 17.3 7.9 10.2 63 4.0 WSW 50 61 27 33 - - 0.0
25/02:30pm 19.4 9.0 9.3 52 5.7 W 54 76 29 41 - - 0.0
25/02:29pm 19.6 9.3 9.5 52 5.7 W 54 76 29 41 - - 0.0
25/02:22pm 20.0 11.1 9.3 50 6.0 W 46 65 25 35 - - 0.0
25/02:14pm 20.2 13.3 8.8 48 6.4 WNW 35 54 19 29 - - 0.0
25/02:00pm 20.4 14.0 8.7 47 6.5 WNW 32 43 17 23 - - 0.0
25/01:30pm 21.4 15.6 8.0 42 7.4 WNW 28 43 15 23 - - 0.0
25/01:00pm 22.2 16.9 6.8 37 8.4 WNW 24 37 13 20 - - 0.0
25/12:30pm 24.6 20.6 8.1 35 9.3 WNW 19 33 10 18 - - 0.0
25/12:00pm 23.6 16.9 7.3 35 9.0 WNW 32 43 17 23 - - 0.0
25/11:30am 23.8 16.7 6.6 33 9.4 NW 33 46 18 25 - - 0.0
25/11:00am 23.0 16.5 6.7 35 8.9 NW 30 41 16 22 - - 0.0
25/10:30am 22.4 15.5 6.6 36 8.6 WNW 32 48 17 26 - - 0.0
25/10:07am 21.8 14.9 6.5 37 8.3 WNW 32 44 17 24 - - 0.0
25/10:00am 21.6 13.3 6.3 37 8.2 NW 39 50 21 27 - - 0.0
25/09:30am 20.6 9.9 6.5 40 7.6 NW 52 63 28 34 - - 0.0
25/09:00am 19.4 8.6 6.2 42 7.0 NW 52 65 28 35 - - 0.0
25/08:30am 18.2 6.6 5.8 44 6.5 NW 56 72 30 39 - - 0.0
25/08:00am 18.1 6.2 5.3 43 6.6 NNW 57 72 31 39 - - 0.0
25/07:33am 18.5 5.4 5.0 41 7.0 NW 63 83 34 45 - - 0.0
25/07:30am 18.4 5.4 5.3 42 6.8 NW 63 78 34 42 - - 0.0
25/07:03am 18.1 4.2 4.7 41 6.9 NW 67 87 36 47 - - 0.0
25/07:00am 18.4 4.1 4.6 40 7.1 NW 69 87 37 47 - - 0.0
25/06:36am 18.3 4.4 4.8 41 6.9 NNW 67 85 36 46 - - 0.0
25/06:30am 17.8 4.7 5.1 43 6.5 NW 63 80 34 43 - - 0.0
25/06:00am 16.9 4.6 5.2 46 6.0 NW 59 72 32 39 - - 0.0
25/05:49am 17.1 4.4 5.1 45 6.1 NNW 61 85 33 46 - - 0.0
25/05:30am 16.5 4.4 4.2 44 6.2 NW 57 74 31 40 - - 0.0
25/05:17am 16.8 4.9 4.2 43 6.3 NW 56 76 30 41 - - 0.0
25/05:00am 16.8 4.2 3.5 41 6.6 NW 59 72 32 39 - - 0.0
25/04:30am 16.8 4.2 3.5 41 6.6 NW 59 70 32 38 - - 0.0
25/04:00am 17.4 5.1 3.3 39 7.0 NW 57 80 31 43 - - 0.0
25/03:31am 17.4 4.7 3.3 39 7.0 NW 59 78 32 42 - - 0.0
25/03:30am 17.4 4.4 3.3 39 7.0 NW 61 78 33 42 - - 0.0
25/03:07am 17.2 5.9 3.5 40 6.8 NW 52 74 28 40 - - 0.0
25/03:00am 17.3 5.6 3.2 39 7.0 NW 54 69 29 37 - - 0.0
25/02:30am 17.1 5.5 3.8 41 6.6 NW 54 69 29 37 - - 0.0
25/02:00am 17.1 6.2 3.4 40 6.8 NW 50 61 27 33 - - 0.0
25/01:30am 17.3 8.1 3.6 40 6.8 NW 41 48 22 26 - - 0.0
25/01:00am 17.3 7.9 2.5 37 7.2 NNW 41 50 22 27 - - 0.0
25/12:30am 17.7 7.9 2.5 36 7.4 NNW 43 50 23 27 - - 0.0
25/12:00am 17.4 8.3 4.0 41 6.7 NNW 41 48 22 26 - - 0.0
 
Date/Time
EDT
Temp
°C
App
Temp
°C
Dew
Point
°C
Rel
Hum
%
Delta-T
°C
Wind Press
QNH
hPa
Press
MSL
hPa
Rain since
9am
mm
Dir  Spd
km/h
Gust
km/h
Spd
kts
Gust
kts
24/11:30pm 16.5 8.7 2.9 40 6.6 NNW 33 37 18 20 - - 0.0
24/11:00pm 15.9 10.0 7.7 58 4.4 N 28 37 15 20 - - 0.0
24/10:30pm 15.5 11.9 8.5 63 3.8 N 17 22 9 12 - - 0.0
24/10:00pm 16.3 11.9 2.7 40 6.6 NNW 15 20 8 11 - - 0.0
24/09:30pm 16.7 11.7 1.2 35 7.3 NW 17 20 9 11 - - 0.0
24/09:00pm 16.8 11.4 1.3 35 7.3 NNW 19 24 10 13 - - 0.0
24/08:30pm 16.9 11.6 1.8 36 7.2 NW 19 22 10 12 - - 0.0
24/08:00pm 17.1 11.4 0.7 33 7.7 NW 20 26 11 14 - - 0.0
24/07:30pm 17.1 12.9 5.7 47 5.9 NW 17 26 9 14 - - 0.0
24/07:00pm 17.4 14.3 7.2 51 5.5 NNW 13 20 7 11 - - 0.0
24/06:30pm 17.4 15.5 9.1 58 4.6 N 9 15 5 8 - - 0.0
24/06:00pm 20.0 14.2 2.4 31 8.7 WNW 22 32 12 17 - - 0.0
24/05:30pm 21.2 16.1 3.9 32 8.9 WNW 20 28 11 15 - - 0.0
24/05:00pm 20.2 17.1 8.8 48 6.4 WNW 15 22 8 12 - - 0.0
24/04:30pm 20.3 18.3 10.1 52 5.8 NNW 11 19 6 10 - - 0.0
24/04:00pm 19.8 16.8 7.9 46 6.5 N 13 19 7 10 - - 0.0
24/03:30pm 19.1 16.3 8.4 50 5.9 N 13 20 7 11 - - 0.0
24/03:00pm 19.6 16.2 6.0 41 7.2 N 13 20 7 11 - - 0.0
24/02:30pm 19.7 15.2 6.1 41 7.2 N 19 28 10 15 - - 0.0
24/02:00pm 19.1 15.9 5.2 40 7.2 NW 11 20 6 11 - - 0.0
24/01:30pm 18.9 13.4 1.9 32 8.3 NW 20 33 11 18 - - 0.0
24/01:00pm 18.2 13.4 5.4 43 6.6 NW 20 28 11 15 - - 0.0
24/12:30pm 17.0 12.1 4.3 43 6.4 NNW 19 28 10 15 - - 0.0
24/12:00pm 14.7 10.4 7.0 60 4.0 NNW 19 28 10 15 - - 0.0
24/11:30am 14.8 11.0 9.0 68 3.2 NNW 19 26 10 14 - - 0.0
24/11:00am 14.0 9.7 5.4 56 4.3 NW 17 30 9 16 - - 0.0
24/10:30am 11.9 9.2 8.9 82 1.6 NNW 13 17 7 9 - - 0.0
24/10:00am 11.9 9.5 8.7 81 1.7 NW 11 17 6 9 - - 0.0
24/09:30am 12.5 7.8 6.1 65 3.2 WNW 20 28 11 15 - - 0.0
24/09:00am 12.4 7.0 4.6 59 3.8 WNW 22 26 12 14 - - 0.0
24/08:30am 11.2 5.8 6.5 73 2.4 WNW 24 32 13 17 - - 0.0
24/08:00am 11.6 7.1 7.1 74 2.3 WNW 20 30 11 16 - - 0.0
24/07:30am 10.9 6.7 7.4 79 1.8 WNW 19 24 10 13 - - 0.0
24/07:00am 10.2 6.1 8.0 86 1.1 WNW 19 22 10 12 - - 0.0
24/06:30am 9.2 4.5 7.6 90 0.8 WNW 22 26 12 14 - - 0.0
24/06:00am 9.1 3.9 7.4 89 0.9 WNW 24 30 13 16 - - 0.0
24/05:30am 9.1 3.2 7.5 90 0.8 NW 28 32 15 17 - - 0.0
24/05:00am 9.1 3.9 7.2 88 1.0 NW 24 30 13 16 - - 0.0
24/04:30am 9.7 6.2 7.0 83 1.4 NW 15 20 8 11 - - 0.0
24/04:00am 10.0 4.8 7.1 82 1.5 NW 24 26 13 14 - - 0.0
24/03:30am 9.6 4.0 7.0 84 1.3 NW 26 32 14 17 - - 0.0
24/03:00am 9.8 3.0 7.1 83 1.4 NW 32 35 17 19 - - 0.0
24/02:30am 9.2 2.9 7.6 90 0.8 NW 30 32 16 17 - - 0.0
24/02:00am 9.2 4.6 8.0 92 0.6 NNW 22 26 12 14 - - 0.0
24/01:30am 9.4 4.4 8.0 91 0.7 NNW 24 28 13 15 - - 0.0
24/01:00am 9.6 4.9 7.7 88 1.0 NNW 22 24 12 13 - - 0.0
24/12:30am 9.8 5.4 7.4 85 1.2 NNW 20 24 11 13 - - 0.0
24/12:00am 10.1 4.9 7.3 83 1.4 NW 24 28 13 15 - - 0.0
 
Date/Time
EDT
Temp
°C
App
Temp
°C
Dew
Point
°C
Rel
Hum
%
Delta-T
°C
Wind Press
QNH
hPa
Press
MSL
hPa
Rain since
9am
mm
Dir  Spd
km/h
Gust
km/h
Spd
kts
Gust
kts
23/11:30pm 10.1 5.0 7.5 84 1.3 NW 24 28 13 15 - - 0.0
23/11:00pm 9.8 4.3 7.4 85 1.2 NW 26 30 14 16 - - 0.0
23/10:30pm 10.0 4.8 7.4 84 1.3 NW 24 30 13 16 - - 0.0
23/10:00pm 10.6 6.5 7.7 82 1.5 NW 19 24 10 13 - - 0.0
23/09:30pm 10.8 7.0 7.7 81 1.6 NW 17 24 9 13 - - 0.0
23/09:00pm 10.2 6.0 7.6 84 1.3 WNW 19 22 10 12 - - 0.0
23/08:30pm 10.6 6.3 7.7 82 1.5 WNW 20 28 11 15 - - 0.0

Latest Capital City Observations: Canberra | Sydney | Melbourne | Brisbane | Adelaide | Perth | Hobart | Darwin

Other formats

Comma delimited format used in spreadsheet applications
http://www.bom.gov.au/fwo/IDT60901/IDT60901.95979.axf

JavaScript Object Notation format (JSON) in row-major order
http://www.bom.gov.au/fwo/IDT60901/IDT60901.95979.json

Data quality

Most of these data are generated automatically and are frequently updated. Quality checks on data are not normally performed. It is possible for incorrect values to appear. Refer to information at About Latest Weather Observations and please check the disclaimer before using these data.